sensor_id;sensor_type;location;lat;lon;timestamp;P1;durP1;ratioP1;P2;durP2;ratioP2
29370;SDS011;16357;52.188;7.838;2024-03-22T00:01:39;26.50;;;20.90;;
29370;SDS011;16357;52.188;7.838;2024-03-22T00:04:05;25.65;;;20.55;;
29370;SDS011;16357;52.188;7.838;2024-03-22T00:06:30;29.55;;;22.58;;
29370;SDS011;16357;52.188;7.838;2024-03-22T00:08:56;26.90;;;21.13;;
29370;SDS011;16357;52.188;7.838;2024-03-22T00:11:21;26.10;;;20.85;;
29370;SDS011;16357;52.188;7.838;2024-03-22T00:13:47;27.48;;;21.45;;
29370;SDS011;16357;52.188;7.838;2024-03-22T00:16:12;28.58;;;22.23;;
29370;SDS011;16357;52.188;7.838;2024-03-22T00:18:38;32.03;;;21.48;;
29370;SDS011;16357;52.188;7.838;2024-03-22T00:21:03;32.13;;;24.27;;
29370;SDS011;16357;52.188;7.838;2024-03-22T00:23:29;29.67;;;23.58;;
29370;SDS011;16357;52.188;7.838;2024-03-22T00:25:56;28.35;;;23.02;;
29370;SDS011;16357;52.188;7.838;2024-03-22T00:28:21;29.58;;;23.50;;
29370;SDS011;16357;52.188;7.838;2024-03-22T00:30:47;31.20;;;24.95;;
29370;SDS011;16357;52.188;7.838;2024-03-22T00:33:12;32.67;;;25.02;;
29370;SDS011;16357;52.188;7.838;2024-03-22T00:35:38;34.55;;;24.67;;
29370;SDS011;16357;52.188;7.838;2024-03-22T00:38:03;34.47;;;26.02;;
29370;SDS011;16357;52.188;7.838;2024-03-22T00:40:29;35.05;;;26.48;;
29370;SDS011;16357;52.188;7.838;2024-03-22T00:42:54;37.88;;;27.10;;
29370;SDS011;16357;52.188;7.838;2024-03-22T00:45:20;32.70;;;26.35;;
29370;SDS011;16357;52.188;7.838;2024-03-22T00:47:45;33.30;;;25.05;;
29370;SDS011;16357;52.188;7.838;2024-03-22T00:50:11;33.42;;;26.13;;
29370;SDS011;16357;52.188;7.838;2024-03-22T00:52:37;34.92;;;26.17;;
29370;SDS011;16357;52.188;7.838;2024-03-22T00:55:03;33.28;;;25.23;;
29370;SDS011;16357;52.188;7.838;2024-03-22T00:57:30;35.63;;;26.17;;
29370;SDS011;16357;52.188;7.838;2024-03-22T00:59:56;34.70;;;25.17;;
29370;SDS011;16357;52.188;7.838;2024-03-22T01:02:21;35.72;;;25.77;;
29370;SDS011;16357;52.188;7.838;2024-03-22T01:04:48;35.28;;;26.00;;
29370;SDS011;16357;52.188;7.838;2024-03-22T01:07:13;36.60;;;26.23;;
29370;SDS011;16357;52.188;7.838;2024-03-22T01:09:39;35.15;;;25.90;;
29370;SDS011;16357;52.188;7.838;2024-03-22T01:12:05;34.47;;;25.65;;
29370;SDS011;16357;52.188;7.838;2024-03-22T01:14:31;40.30;;;26.58;;
29370;SDS011;16357;52.188;7.838;2024-03-22T01:16:57;35.00;;;25.60;;
29370;SDS011;16357;52.188;7.838;2024-03-22T01:19:22;37.80;;;26.67;;
29370;SDS011;16357;52.188;7.838;2024-03-22T01:21:48;37.35;;;26.70;;
29370;SDS011;16357;52.188;7.838;2024-03-22T01:24:14;36.25;;;25.90;;
29370;SDS011;16357;52.188;7.838;2024-03-22T01:26:40;38.10;;;27.55;;
29370;SDS011;16357;52.188;7.838;2024-03-22T01:29:05;36.22;;;26.63;;
29370;SDS011;16357;52.188;7.838;2024-03-22T01:31:31;36.70;;;26.88;;
29370;SDS011;16357;52.188;7.838;2024-03-22T01:33:56;37.85;;;27.00;;
29370;SDS011;16357;52.188;7.838;2024-03-22T01:36:22;36.10;;;26.02;;
29370;SDS011;16357;52.188;7.838;2024-03-22T01:38:47;38.58;;;27.08;;
29370;SDS011;16357;52.188;7.838;2024-03-22T01:41:13;37.30;;;26.58;;
29370;SDS011;16357;52.188;7.838;2024-03-22T01:43:38;38.75;;;26.50;;
29370;SDS011;16357;52.188;7.838;2024-03-22T01:46:04;41.15;;;28.00;;
29370;SDS011;16357;52.188;7.838;2024-03-22T01:48:33;38.95;;;27.17;;
29370;SDS011;16357;52.188;7.838;2024-03-22T01:50:59;42.90;;;27.52;;
29370;SDS011;16357;52.188;7.838;2024-03-22T01:53:25;39.65;;;28.10;;
29370;SDS011;16357;52.188;7.838;2024-03-22T01:55:51;40.03;;;26.70;;
29370;SDS011;16357;52.188;7.838;2024-03-22T01:58:16;42.45;;;27.27;;
29370;SDS011;16357;52.188;7.838;2024-03-22T02:00:43;42.05;;;27.48;;
29370;SDS011;16357;52.188;7.838;2024-03-22T02:03:08;40.40;;;28.23;;
29370;SDS011;16357;52.188;7.838;2024-03-22T02:05:34;39.58;;;27.70;;
29370;SDS011;16357;52.188;7.838;2024-03-22T02:07:59;42.28;;;26.35;;
29370;SDS011;16357;52.188;7.838;2024-03-22T02:10:25;40.17;;;26.95;;
29370;SDS011;16357;52.188;7.838;2024-03-22T02:12:51;40.35;;;27.80;;
29370;SDS011;16357;52.188;7.838;2024-03-22T02:15:16;39.17;;;26.95;;
29370;SDS011;16357;52.188;7.838;2024-03-22T02:17:42;41.10;;;27.88;;
29370;SDS011;16357;52.188;7.838;2024-03-22T02:20:07;41.90;;;26.92;;
29370;SDS011;16357;52.188;7.838;2024-03-22T02:22:33;39.40;;;26.90;;
29370;SDS011;16357;52.188;7.838;2024-03-22T02:24:59;41.20;;;27.00;;
29370;SDS011;16357;52.188;7.838;2024-03-22T02:27:24;40.22;;;26.95;;
29370;SDS011;16357;52.188;7.838;2024-03-22T02:29:50;40.38;;;26.88;;
29370;SDS011;16357;52.188;7.838;2024-03-22T02:32:16;40.42;;;27.80;;
29370;SDS011;16357;52.188;7.838;2024-03-22T02:34:41;43.10;;;26.73;;
29370;SDS011;16357;52.188;7.838;2024-03-22T02:37:07;41.72;;;27.42;;
29370;SDS011;16357;52.188;7.838;2024-03-22T02:39:32;41.30;;;28.40;;
29370;SDS011;16357;52.188;7.838;2024-03-22T02:41:58;43.17;;;28.40;;
29370;SDS011;16357;52.188;7.838;2024-03-22T02:44:23;42.38;;;27.40;;
29370;SDS011;16357;52.188;7.838;2024-03-22T02:46:49;38.65;;;26.75;;
29370;SDS011;16357;52.188;7.838;2024-03-22T02:49:14;44.45;;;28.00;;
29370;SDS011;16357;52.188;7.838;2024-03-22T02:51:40;41.50;;;27.17;;
29370;SDS011;16357;52.188;7.838;2024-03-22T02:54:05;42.08;;;28.13;;
29370;SDS011;16357;52.188;7.838;2024-03-22T02:56:31;43.92;;;29.10;;
29370;SDS011;16357;52.188;7.838;2024-03-22T02:58:56;42.58;;;27.95;;
29370;SDS011;16357;52.188;7.838;2024-03-22T03:01:22;42.40;;;27.92;;
29370;SDS011;16357;52.188;7.838;2024-03-22T03:03:48;44.60;;;28.65;;
29370;SDS011;16357;52.188;7.838;2024-03-22T03:06:13;44.35;;;28.27;;
29370;SDS011;16357;52.188;7.838;2024-03-22T03:08:40;45.50;;;29.17;;
29370;SDS011;16357;52.188;7.838;2024-03-22T03:11:05;43.67;;;28.63;;
29370;SDS011;16357;52.188;7.838;2024-03-22T03:13:31;44.15;;;28.08;;
29370;SDS011;16357;52.188;7.838;2024-03-22T03:15:57;45.00;;;28.52;;
29370;SDS011;16357;52.188;7.838;2024-03-22T03:18:22;45.17;;;29.17;;
29370;SDS011;16357;52.188;7.838;2024-03-22T03:20:48;49.83;;;28.73;;
29370;SDS011;16357;52.188;7.838;2024-03-22T03:23:13;50.22;;;29.17;;
29370;SDS011;16357;52.188;7.838;2024-03-22T03:25:39;46.58;;;29.13;;
29370;SDS011;16357;52.188;7.838;2024-03-22T03:28:04;45.10;;;27.73;;
29370;SDS011;16357;52.188;7.838;2024-03-22T03:30:33;45.05;;;27.92;;
29370;SDS011;16357;52.188;7.838;2024-03-22T03:32:59;45.90;;;28.63;;
29370;SDS011;16357;52.188;7.838;2024-03-22T03:35:25;48.13;;;29.77;;
29370;SDS011;16357;52.188;7.838;2024-03-22T03:37:51;45.83;;;28.50;;
29370;SDS011;16357;52.188;7.838;2024-03-22T03:40:16;48.22;;;29.05;;
29370;SDS011;16357;52.188;7.838;2024-03-22T03:42:42;43.65;;;26.98;;
29370;SDS011;16357;52.188;7.838;2024-03-22T03:45:07;44.50;;;27.80;;
29370;SDS011;16357;52.188;7.838;2024-03-22T03:47:33;45.75;;;28.65;;
29370;SDS011;16357;52.188;7.838;2024-03-22T03:49:58;47.55;;;27.60;;
29370;SDS011;16357;52.188;7.838;2024-03-22T03:52:24;45.95;;;28.05;;
29370;SDS011;16357;52.188;7.838;2024-03-22T03:54:50;48.58;;;28.95;;
29370;SDS011;16357;52.188;7.838;2024-03-22T03:57:15;50.03;;;29.42;;
29370;SDS011;16357;52.188;7.838;2024-03-22T03:59:41;52.85;;;27.55;;
29370;SDS011;16357;52.188;7.838;2024-03-22T04:02:06;47.80;;;27.88;;
29370;SDS011;16357;52.188;7.838;2024-03-22T04:04:32;45.50;;;28.42;;
29370;SDS011;16357;52.188;7.838;2024-03-22T04:06:57;50.00;;;29.38;;
29370;SDS011;16357;52.188;7.838;2024-03-22T04:09:23;45.63;;;26.83;;
29370;SDS011;16357;52.188;7.838;2024-03-22T04:11:48;45.53;;;28.15;;
29370;SDS011;16357;52.188;7.838;2024-03-22T04:14:14;47.85;;;27.50;;
29370;SDS011;16357;52.188;7.838;2024-03-22T04:16:40;47.50;;;28.13;;
29370;SDS011;16357;52.188;7.838;2024-03-22T04:19:05;45.45;;;26.95;;
29370;SDS011;16357;52.188;7.838;2024-03-22T04:21:31;41.38;;;25.83;;
29370;SDS011;16357;52.188;7.838;2024-03-22T04:23:57;43.38;;;26.30;;
29370;SDS011;16357;52.188;7.838;2024-03-22T04:26:22;49.47;;;26.70;;
29370;SDS011;16357;52.188;7.838;2024-03-22T04:28:48;45.78;;;27.23;;
29370;SDS011;16357;52.188;7.838;2024-03-22T04:31:14;48.13;;;27.52;;
29370;SDS011;16357;52.188;7.838;2024-03-22T04:33:40;44.53;;;26.70;;
29370;SDS011;16357;52.188;7.838;2024-03-22T04:36:06;43.95;;;26.15;;
29370;SDS011;16357;52.188;7.838;2024-03-22T04:38:34;48.10;;;26.55;;
29370;SDS011;16357;52.188;7.838;2024-03-22T04:41:00;46.63;;;26.42;;
29370;SDS011;16357;52.188;7.838;2024-03-22T04:43:27;42.92;;;25.50;;
29370;SDS011;16357;52.188;7.838;2024-03-22T04:45:53;46.22;;;27.30;;
29370;SDS011;16357;52.188;7.838;2024-03-22T04:48:22;47.55;;;26.25;;
29370;SDS011;16357;52.188;7.838;2024-03-22T04:50:49;43.92;;;25.13;;
29370;SDS011;16357;52.188;7.838;2024-03-22T04:53:16;44.13;;;26.40;;
29370;SDS011;16357;52.188;7.838;2024-03-22T04:55:42;46.85;;;25.95;;
29370;SDS011;16357;52.188;7.838;2024-03-22T04:58:12;42.88;;;24.75;;
29370;SDS011;16357;52.188;7.838;2024-03-22T05:00:41;43.28;;;25.92;;
29370;SDS011;16357;52.188;7.838;2024-03-22T05:03:07;42.25;;;24.33;;
29370;SDS011;16357;52.188;7.838;2024-03-22T05:05:33;44.28;;;26.00;;
29370;SDS011;16357;52.188;7.838;2024-03-22T05:07:59;41.85;;;24.63;;
29370;SDS011;16357;52.188;7.838;2024-03-22T05:10:25;41.13;;;25.17;;
29370;SDS011;16357;52.188;7.838;2024-03-22T05:12:50;41.58;;;25.25;;
29370;SDS011;16357;52.188;7.838;2024-03-22T05:15:16;43.00;;;25.63;;
29370;SDS011;16357;52.188;7.838;2024-03-22T05:17:41;39.97;;;24.45;;
29370;SDS011;16357;52.188;7.838;2024-03-22T05:20:08;43.78;;;25.02;;
29370;SDS011;16357;52.188;7.838;2024-03-22T05:22:39;42.20;;;24.48;;
29370;SDS011;16357;52.188;7.838;2024-03-22T05:25:05;38.90;;;23.83;;
29370;SDS011;16357;52.188;7.838;2024-03-22T05:27:31;39.53;;;24.10;;
29370;SDS011;16357;52.188;7.838;2024-03-22T05:29:58;42.75;;;23.95;;
29370;SDS011;16357;52.188;7.838;2024-03-22T05:32:24;43.83;;;25.48;;
29370;SDS011;16357;52.188;7.838;2024-03-22T05:34:50;40.33;;;23.67;;
29370;SDS011;16357;52.188;7.838;2024-03-22T05:37:16;43.15;;;24.92;;
29370;SDS011;16357;52.188;7.838;2024-03-22T05:39:41;38.72;;;23.98;;
29370;SDS011;16357;52.188;7.838;2024-03-22T05:42:07;41.58;;;23.85;;
29370;SDS011;16357;52.188;7.838;2024-03-22T05:44:33;41.15;;;24.08;;
29370;SDS011;16357;52.188;7.838;2024-03-22T05:46:59;41.35;;;24.75;;
29370;SDS011;16357;52.188;7.838;2024-03-22T05:49:24;40.33;;;24.15;;
29370;SDS011;16357;52.188;7.838;2024-03-22T05:51:50;40.53;;;24.77;;
29370;SDS011;16357;52.188;7.838;2024-03-22T05:54:15;40.45;;;22.92;;
29370;SDS011;16357;52.188;7.838;2024-03-22T05:56:41;40.20;;;24.25;;
29370;SDS011;16357;52.188;7.838;2024-03-22T05:59:07;40.92;;;23.50;;
29370;SDS011;16357;52.188;7.838;2024-03-22T06:01:32;40.75;;;24.02;;
29370;SDS011;16357;52.188;7.838;2024-03-22T06:03:58;44.40;;;24.65;;
29370;SDS011;16357;52.188;7.838;2024-03-22T06:06:23;39.05;;;23.40;;
29370;SDS011;16357;52.188;7.838;2024-03-22T06:08:51;38.00;;;24.17;;
29370;SDS011;16357;52.188;7.838;2024-03-22T06:11:22;39.38;;;23.63;;
29370;SDS011;16357;52.188;7.838;2024-03-22T06:13:48;38.85;;;23.90;;
29370;SDS011;16357;52.188;7.838;2024-03-22T06:16:14;42.28;;;24.75;;
29370;SDS011;16357;52.188;7.838;2024-03-22T06:18:40;38.20;;;23.75;;
29370;SDS011;16357;52.188;7.838;2024-03-22T06:21:05;41.25;;;24.92;;
29370;SDS011;16357;52.188;7.838;2024-03-22T06:23:32;36.33;;;23.13;;
29370;SDS011;16357;52.188;7.838;2024-03-22T06:25:58;40.88;;;24.25;;
29370;SDS011;16357;52.188;7.838;2024-03-22T06:28:25;38.15;;;24.27;;
29370;SDS011;16357;52.188;7.838;2024-03-22T06:30:52;41.65;;;24.45;;
29370;SDS011;16357;52.188;7.838;2024-03-22T06:33:19;42.90;;;24.20;;
29370;SDS011;16357;52.188;7.838;2024-03-22T06:35:45;38.53;;;23.65;;
29370;SDS011;16357;52.188;7.838;2024-03-22T06:38:11;38.58;;;24.67;;
29370;SDS011;16357;52.188;7.838;2024-03-22T06:40:37;38.40;;;23.17;;
29370;SDS011;16357;52.188;7.838;2024-03-22T06:43:02;40.10;;;24.55;;
29370;SDS011;16357;52.188;7.838;2024-03-22T06:45:28;40.63;;;24.60;;
29370;SDS011;16357;52.188;7.838;2024-03-22T06:47:54;38.38;;;23.83;;
29370;SDS011;16357;52.188;7.838;2024-03-22T06:50:20;37.72;;;22.88;;
29370;SDS011;16357;52.188;7.838;2024-03-22T06:52:55;42.10;;;25.17;;
29370;SDS011;16357;52.188;7.838;2024-03-22T06:55:21;36.92;;;23.10;;
29370;SDS011;16357;52.188;7.838;2024-03-22T06:57:47;37.55;;;23.02;;
29370;SDS011;16357;52.188;7.838;2024-03-22T07:00:13;37.95;;;24.05;;
29370;SDS011;16357;52.188;7.838;2024-03-22T07:02:39;38.95;;;23.95;;
29370;SDS011;16357;52.188;7.838;2024-03-22T07:05:08;38.13;;;24.20;;
29370;SDS011;16357;52.188;7.838;2024-03-22T07:07:34;40.95;;;24.35;;
29370;SDS011;16357;52.188;7.838;2024-03-22T07:10:00;38.25;;;23.80;;
29370;SDS011;16357;52.188;7.838;2024-03-22T07:12:26;38.60;;;24.77;;
29370;SDS011;16357;52.188;7.838;2024-03-22T07:14:52;39.08;;;24.40;;
29370;SDS011;16357;52.188;7.838;2024-03-22T07:17:18;38.45;;;24.00;;
29370;SDS011;16357;52.188;7.838;2024-03-22T07:19:49;40.63;;;25.27;;
29370;SDS011;16357;52.188;7.838;2024-03-22T07:22:17;37.40;;;24.75;;
29370;SDS011;16357;52.188;7.838;2024-03-22T07:24:44;36.08;;;23.73;;
29370;SDS011;16357;52.188;7.838;2024-03-22T07:27:10;40.25;;;24.70;;
29370;SDS011;16357;52.188;7.838;2024-03-22T07:29:35;40.00;;;24.08;;
29370;SDS011;16357;52.188;7.838;2024-03-22T07:32:01;35.60;;;22.77;;
29370;SDS011;16357;52.188;7.838;2024-03-22T07:34:27;42.03;;;25.50;;
29370;SDS011;16357;52.188;7.838;2024-03-22T07:36:53;38.00;;;24.48;;
29370;SDS011;16357;52.188;7.838;2024-03-22T07:39:18;37.45;;;24.73;;
29370;SDS011;16357;52.188;7.838;2024-03-22T07:41:44;37.10;;;24.02;;
29370;SDS011;16357;52.188;7.838;2024-03-22T07:44:09;35.47;;;24.00;;
29370;SDS011;16357;52.188;7.838;2024-03-22T07:46:36;35.45;;;23.88;;
29370;SDS011;16357;52.188;7.838;2024-03-22T07:49:04;40.35;;;24.95;;
29370;SDS011;16357;52.188;7.838;2024-03-22T07:51:30;35.28;;;23.23;;
29370;SDS011;16357;52.188;7.838;2024-03-22T07:53:55;34.38;;;24.38;;
29370;SDS011;16357;52.188;7.838;2024-03-22T07:56:21;38.20;;;25.52;;
29370;SDS011;16357;52.188;7.838;2024-03-22T07:58:47;38.42;;;25.42;;
29370;SDS011;16357;52.188;7.838;2024-03-22T08:01:12;41.35;;;24.67;;
29370;SDS011;16357;52.188;7.838;2024-03-22T08:03:38;34.75;;;23.30;;
29370;SDS011;16357;52.188;7.838;2024-03-22T08:06:03;37.35;;;23.85;;
29370;SDS011;16357;52.188;7.838;2024-03-22T08:08:29;34.17;;;23.25;;
29370;SDS011;16357;52.188;7.838;2024-03-22T08:10:55;32.15;;;22.65;;
29370;SDS011;16357;52.188;7.838;2024-03-22T08:13:20;36.70;;;23.55;;
29370;SDS011;16357;52.188;7.838;2024-03-22T08:15:46;35.22;;;24.02;;
29370;SDS011;16357;52.188;7.838;2024-03-22T08:18:11;35.25;;;23.38;;
29370;SDS011;16357;52.188;7.838;2024-03-22T08:20:37;33.58;;;22.83;;
29370;SDS011;16357;52.188;7.838;2024-03-22T08:23:04;44.05;;;24.35;;
29370;SDS011;16357;52.188;7.838;2024-03-22T08:25:30;33.08;;;23.10;;
29370;SDS011;16357;52.188;7.838;2024-03-22T08:27:57;35.40;;;22.52;;
29370;SDS011;16357;52.188;7.838;2024-03-22T08:30:23;34.35;;;22.63;;
29370;SDS011;16357;52.188;7.838;2024-03-22T08:32:50;34.05;;;22.58;;
29370;SDS011;16357;52.188;7.838;2024-03-22T08:35:15;35.65;;;23.25;;
29370;SDS011;16357;52.188;7.838;2024-03-22T08:37:41;32.22;;;22.30;;
29370;SDS011;16357;52.188;7.838;2024-03-22T08:40:07;29.50;;;22.15;;
29370;SDS011;16357;52.188;7.838;2024-03-22T08:42:32;31.55;;;22.85;;
29370;SDS011;16357;52.188;7.838;2024-03-22T08:44:58;33.78;;;22.67;;
29370;SDS011;16357;52.188;7.838;2024-03-22T08:47:24;31.98;;;22.55;;
29370;SDS011;16357;52.188;7.838;2024-03-22T08:49:49;31.80;;;21.52;;
29370;SDS011;16357;52.188;7.838;2024-03-22T08:52:15;29.70;;;21.80;;
29370;SDS011;16357;52.188;7.838;2024-03-22T08:54:40;33.28;;;22.10;;
29370;SDS011;16357;52.188;7.838;2024-03-22T08:57:06;30.05;;;21.70;;
29370;SDS011;16357;52.188;7.838;2024-03-22T08:59:32;31.42;;;20.35;;
29370;SDS011;16357;52.188;7.838;2024-03-22T09:01:57;30.67;;;21.90;;
29370;SDS011;16357;52.188;7.838;2024-03-22T09:04:24;32.03;;;21.42;;
29370;SDS011;16357;52.188;7.838;2024-03-22T09:06:50;28.02;;;20.92;;
29370;SDS011;16357;52.188;7.838;2024-03-22T09:09:15;31.45;;;20.35;;
29370;SDS011;16357;52.188;7.838;2024-03-22T09:11:42;28.63;;;20.40;;
29370;SDS011;16357;52.188;7.838;2024-03-22T09:14:07;28.70;;;19.85;;
29370;SDS011;16357;52.188;7.838;2024-03-22T09:16:33;26.67;;;19.95;;
29370;SDS011;16357;52.188;7.838;2024-03-22T09:18:59;27.55;;;19.35;;
29370;SDS011;16357;52.188;7.838;2024-03-22T09:21:25;33.28;;;21.30;;
29370;SDS011;16357;52.188;7.838;2024-03-22T09:23:50;30.85;;;21.58;;
29370;SDS011;16357;52.188;7.838;2024-03-22T09:26:16;27.70;;;19.48;;
29370;SDS011;16357;52.188;7.838;2024-03-22T09:28:41;27.98;;;19.17;;
29370;SDS011;16357;52.188;7.838;2024-03-22T09:31:07;29.20;;;20.10;;
29370;SDS011;16357;52.188;7.838;2024-03-22T09:33:33;28.40;;;19.58;;
29370;SDS011;16357;52.188;7.838;2024-03-22T09:35:59;26.83;;;19.58;;
29370;SDS011;16357;52.188;7.838;2024-03-22T09:38:25;27.30;;;19.50;;
29370;SDS011;16357;52.188;7.838;2024-03-22T09:40:50;29.15;;;19.20;;
29370;SDS011;16357;52.188;7.838;2024-03-22T09:43:19;27.40;;;18.88;;
29370;SDS011;16357;52.188;7.838;2024-03-22T09:45:49;24.88;;;18.42;;
29370;SDS011;16357;52.188;7.838;2024-03-22T09:48:17;27.92;;;18.40;;
29370;SDS011;16357;52.188;7.838;2024-03-22T09:50:44;24.95;;;18.13;;
29370;SDS011;16357;52.188;7.838;2024-03-22T09:53:19;25.98;;;18.60;;
29370;SDS011;16357;52.188;7.838;2024-03-22T09:55:47;25.40;;;17.88;;
29370;SDS011;16357;52.188;7.838;2024-03-22T09:58:13;24.60;;;18.17;;
29370;SDS011;16357;52.188;7.838;2024-03-22T10:00:39;27.20;;;18.58;;
29370;SDS011;16357;52.188;7.838;2024-03-22T10:03:04;25.55;;;17.33;;
29370;SDS011;16357;52.188;7.838;2024-03-22T10:05:30;25.63;;;18.75;;
29370;SDS011;16357;52.188;7.838;2024-03-22T10:07:57;25.60;;;18.27;;
29370;SDS011;16357;52.188;7.838;2024-03-22T10:10:22;26.48;;;18.40;;
29370;SDS011;16357;52.188;7.838;2024-03-22T10:12:48;26.80;;;19.05;;
29370;SDS011;16357;52.188;7.838;2024-03-22T10:15:14;25.48;;;18.13;;
29370;SDS011;16357;52.188;7.838;2024-03-22T10:17:39;24.65;;;18.10;;
29370;SDS011;16357;52.188;7.838;2024-03-22T10:20:05;24.40;;;18.27;;
29370;SDS011;16357;52.188;7.838;2024-03-22T10:22:57;25.00;;;18.25;;
29370;SDS011;16357;52.188;7.838;2024-03-22T10:25:25;27.40;;;18.55;;
29370;SDS011;16357;52.188;7.838;2024-03-22T10:27:56;27.90;;;18.38;;
29370;SDS011;16357;52.188;7.838;2024-03-22T10:30:22;29.55;;;19.17;;
29370;SDS011;16357;52.188;7.838;2024-03-22T10:32:48;24.77;;;18.23;;
29370;SDS011;16357;52.188;7.838;2024-03-22T10:35:14;29.35;;;19.58;;
29370;SDS011;16357;52.188;7.838;2024-03-22T10:37:42;26.50;;;17.92;;
29370;SDS011;16357;52.188;7.838;2024-03-22T10:40:08;28.10;;;18.98;;
29370;SDS011;16357;52.188;7.838;2024-03-22T10:42:38;25.42;;;18.48;;
29370;SDS011;16357;52.188;7.838;2024-03-22T10:45:07;27.15;;;19.13;;
29370;SDS011;16357;52.188;7.838;2024-03-22T10:47:34;24.83;;;18.45;;
29370;SDS011;16357;52.188;7.838;2024-03-22T10:50:08;24.83;;;18.33;;
29370;SDS011;16357;52.188;7.838;2024-03-22T10:52:45;29.55;;;19.33;;
29370;SDS011;16357;52.188;7.838;2024-03-22T10:55:13;25.27;;;18.40;;
29370;SDS011;16357;52.188;7.838;2024-03-22T10:57:44;24.10;;;18.30;;
29370;SDS011;16357;52.188;7.838;2024-03-22T11:00:10;27.13;;;17.38;;
29370;SDS011;16357;52.188;7.838;2024-03-22T11:02:36;26.60;;;17.15;;
29370;SDS011;16357;52.188;7.838;2024-03-22T11:05:03;27.50;;;17.98;;
29370;SDS011;16357;52.188;7.838;2024-03-22T11:07:29;26.73;;;18.80;;
29370;SDS011;16357;52.188;7.838;2024-03-22T11:09:56;29.95;;;18.98;;
29370;SDS011;16357;52.188;7.838;2024-03-22T11:12:25;28.88;;;18.70;;
29370;SDS011;16357;52.188;7.838;2024-03-22T11:14:55;28.02;;;18.33;;
29370;SDS011;16357;52.188;7.838;2024-03-22T11:17:20;29.98;;;19.25;;
29370;SDS011;16357;52.188;7.838;2024-03-22T11:19:53;25.48;;;17.63;;
29370;SDS011;16357;52.188;7.838;2024-03-22T11:22:18;26.02;;;17.63;;
29370;SDS011;16357;52.188;7.838;2024-03-22T11:24:44;27.25;;;19.15;;
29370;SDS011;16357;52.188;7.838;2024-03-22T11:27:10;25.88;;;18.30;;
29370;SDS011;16357;52.188;7.838;2024-03-22T11:29:36;25.90;;;18.45;;
29370;SDS011;16357;52.188;7.838;2024-03-22T11:32:10;28.77;;;19.13;;
29370;SDS011;16357;52.188;7.838;2024-03-22T11:34:37;30.50;;;19.55;;
29370;SDS011;16357;52.188;7.838;2024-03-22T11:37:04;28.38;;;19.65;;
29370;SDS011;16357;52.188;7.838;2024-03-22T11:39:32;27.00;;;18.95;;
29370;SDS011;16357;52.188;7.838;2024-03-22T11:42:00;25.70;;;18.75;;
29370;SDS011;16357;52.188;7.838;2024-03-22T11:44:28;27.67;;;18.90;;
29370;SDS011;16357;52.188;7.838;2024-03-22T11:46:54;28.85;;;19.13;;
29370;SDS011;16357;52.188;7.838;2024-03-22T11:49:19;28.20;;;19.17;;
29370;SDS011;16357;52.188;7.838;2024-03-22T11:51:45;28.17;;;18.63;;
29370;SDS011;16357;52.188;7.838;2024-03-22T11:54:11;25.73;;;19.27;;
29370;SDS011;16357;52.188;7.838;2024-03-22T11:56:36;27.48;;;18.67;;
29370;SDS011;16357;52.188;7.838;2024-03-22T11:59:02;25.92;;;18.20;;
29370;SDS011;16357;52.188;7.838;2024-03-22T12:01:29;28.25;;;19.10;;
29370;SDS011;16357;52.188;7.838;2024-03-22T12:03:55;28.92;;;18.67;;
29370;SDS011;16357;52.188;7.838;2024-03-22T12:06:21;31.05;;;19.13;;
29370;SDS011;16357;52.188;7.838;2024-03-22T12:08:47;25.42;;;17.35;;
29370;SDS011;16357;52.188;7.838;2024-03-22T12:11:13;25.80;;;18.00;;
29370;SDS011;16357;52.188;7.838;2024-03-22T12:13:39;24.48;;;17.40;;
29370;SDS011;16357;52.188;7.838;2024-03-22T12:16:05;26.30;;;17.95;;
29370;SDS011;16357;52.188;7.838;2024-03-22T12:18:31;25.08;;;17.33;;
29370;SDS011;16357;52.188;7.838;2024-03-22T12:20:56;23.23;;;17.40;;
29370;SDS011;16357;52.188;7.838;2024-03-22T12:23:22;26.23;;;17.48;;
29370;SDS011;16357;52.188;7.838;2024-03-22T12:25:49;28.00;;;17.02;;
29370;SDS011;16357;52.188;7.838;2024-03-22T12:28:16;23.48;;;16.30;;
29370;SDS011;16357;52.188;7.838;2024-03-22T12:30:41;22.45;;;15.68;;
29370;SDS011;16357;52.188;7.838;2024-03-22T12:33:08;22.33;;;15.20;;
29370;SDS011;16357;52.188;7.838;2024-03-22T12:35:39;22.88;;;16.25;;
29370;SDS011;16357;52.188;7.838;2024-03-22T12:38:05;22.83;;;15.40;;
29370;SDS011;16357;52.188;7.838;2024-03-22T12:40:31;21.70;;;15.23;;
29370;SDS011;16357;52.188;7.838;2024-03-22T12:42:58;24.10;;;16.08;;
29370;SDS011;16357;52.188;7.838;2024-03-22T12:45:24;18.40;;;14.38;;
29370;SDS011;16357;52.188;7.838;2024-03-22T12:47:49;20.23;;;15.07;;
29370;SDS011;16357;52.188;7.838;2024-03-22T12:50:24;19.95;;;14.82;;
29370;SDS011;16357;52.188;7.838;2024-03-22T12:52:51;20.73;;;15.18;;
29370;SDS011;16357;52.188;7.838;2024-03-22T12:55:17;22.52;;;14.43;;
29370;SDS011;16357;52.188;7.838;2024-03-22T12:57:42;22.02;;;15.27;;
29370;SDS011;16357;52.188;7.838;2024-03-22T13:00:11;21.15;;;14.80;;
29370;SDS011;16357;52.188;7.838;2024-03-22T13:02:39;19.50;;;13.77;;
29370;SDS011;16357;52.188;7.838;2024-03-22T13:05:05;19.90;;;13.88;;
29370;SDS011;16357;52.188;7.838;2024-03-22T13:07:31;22.15;;;13.73;;
29370;SDS011;16357;52.188;7.838;2024-03-22T13:09:57;17.63;;;12.80;;
29370;SDS011;16357;52.188;7.838;2024-03-22T13:12:25;19.58;;;13.95;;
29370;SDS011;16357;52.188;7.838;2024-03-22T13:14:51;21.90;;;14.93;;
29370;SDS011;16357;52.188;7.838;2024-03-22T13:17:17;21.88;;;14.77;;
29370;SDS011;16357;52.188;7.838;2024-03-22T13:19:43;20.80;;;14.57;;
29370;SDS011;16357;52.188;7.838;2024-03-22T13:22:08;19.83;;;14.70;;
29370;SDS011;16357;52.188;7.838;2024-03-22T13:24:34;17.80;;;13.68;;
29370;SDS011;16357;52.188;7.838;2024-03-22T13:27:00;19.67;;;13.82;;
29370;SDS011;16357;52.188;7.838;2024-03-22T13:29:28;21.98;;;14.40;;
29370;SDS011;16357;52.188;7.838;2024-03-22T13:31:53;29.73;;;19.88;;
29370;SDS011;16357;52.188;7.838;2024-03-22T13:34:19;24.45;;;16.13;;
29370;SDS011;16357;52.188;7.838;2024-03-22T13:36:44;18.50;;;13.43;;
29370;SDS011;16357;52.188;7.838;2024-03-22T13:39:10;20.50;;;13.82;;
29370;SDS011;16357;52.188;7.838;2024-03-22T13:41:41;19.95;;;14.32;;
29370;SDS011;16357;52.188;7.838;2024-03-22T13:44:07;17.27;;;12.52;;
29370;SDS011;16357;52.188;7.838;2024-03-22T13:46:33;18.83;;;12.68;;
29370;SDS011;16357;52.188;7.838;2024-03-22T13:49:01;16.05;;;12.55;;
29370;SDS011;16357;52.188;7.838;2024-03-22T13:51:29;16.45;;;11.88;;
29370;SDS011;16357;52.188;7.838;2024-03-22T13:53:56;16.02;;;11.32;;
29370;SDS011;16357;52.188;7.838;2024-03-22T13:56:22;16.58;;;11.95;;
29370;SDS011;16357;52.188;7.838;2024-03-22T13:58:48;13.18;;;10.07;;
29370;SDS011;16357;52.188;7.838;2024-03-22T14:01:14;14.50;;;10.25;;
29370;SDS011;16357;52.188;7.838;2024-03-22T14:03:40;11.40;;;9.75;;
29370;SDS011;16357;52.188;7.838;2024-03-22T14:06:06;13.85;;;9.70;;
29370;SDS011;16357;52.188;7.838;2024-03-22T14:08:32;13.48;;;10.05;;
29370;SDS011;16357;52.188;7.838;2024-03-22T14:10:57;13.88;;;10.43;;
29370;SDS011;16357;52.188;7.838;2024-03-22T14:13:23;13.40;;;9.82;;
29370;SDS011;16357;52.188;7.838;2024-03-22T14:15:48;15.02;;;9.82;;